createdAt,value
2022-12-22T00:02:48.178Z,2.62
2022-12-22T00:05:41.029Z,2.73
2022-12-22T00:08:27.403Z,2.86
2022-12-22T00:11:14.322Z,2.97
2022-12-22T00:14:02.705Z,3.00
2022-12-22T00:16:55.010Z,3.22
2022-12-22T00:19:41.012Z,3.25
2022-12-22T00:22:43.588Z,3.31
2022-12-22T00:25:33.762Z,3.36
2022-12-22T00:28:20.366Z,3.38
2022-12-22T00:31:06.948Z,3.45
2022-12-22T00:33:53.241Z,3.54
2022-12-22T00:36:39.406Z,3.59
2022-12-22T00:39:32.365Z,3.59
2022-12-22T00:42:18.481Z,3.63
2022-12-22T00:45:04.585Z,3.73
2022-12-22T00:47:50.526Z,3.68
2022-12-22T00:50:36.670Z,3.80
2022-12-22T00:53:23.367Z,3.73
2022-12-22T00:56:09.238Z,3.70
2022-12-22T00:58:55.422Z,3.71
2022-12-22T01:01:41.478Z,3.69
2022-12-22T01:04:30.451Z,3.70
2022-12-22T01:07:16.457Z,3.80
2022-12-22T01:10:05.603Z,3.70
2022-12-22T01:12:52.961Z,3.79
2022-12-22T01:15:39.191Z,3.84
2022-12-22T01:18:25.442Z,3.79
2022-12-22T01:21:11.409Z,3.93
2022-12-22T01:23:58.172Z,3.97
2022-12-22T01:26:44.283Z,3.99
2022-12-22T01:29:30.224Z,3.97
2022-12-22T01:32:16.383Z,4.06
2022-12-22T01:35:02.603Z,4.06
2022-12-22T01:37:48.921Z,4.08
2022-12-22T01:40:39.717Z,4.20
2022-12-22T01:43:48.972Z,4.24
2022-12-22T01:46:41.918Z,4.24
2022-12-22T01:49:30.557Z,4.27
2022-12-22T01:52:16.721Z,4.28
2022-12-22T01:55:02.892Z,4.31
2022-12-22T01:57:49.582Z,4.34
2022-12-22T02:00:35.827Z,4.31
2022-12-22T02:03:21.952Z,4.32
2022-12-22T02:06:22.360Z,4.39
2022-12-22T02:09:12.032Z,4.49
2022-12-22T02:12:08.748Z,4.46
2022-12-22T02:15:05.442Z,4.54
2022-12-22T02:18:13.799Z,4.59
2022-12-22T02:21:07.411Z,4.62
2022-12-22T02:24:11.754Z,4.60
2022-12-22T02:27:08.870Z,4.64
2022-12-22T02:29:57.932Z,4.66
2022-12-22T02:32:43.901Z,4.74
2022-12-22T02:35:34.725Z,4.77
2022-12-22T02:38:52.436Z,4.72
2022-12-22T02:41:44.943Z,4.68
2022-12-22T02:45:03.163Z,4.75
2022-12-22T02:48:03.007Z,4.69
2022-12-22T02:50:53.096Z,4.68
2022-12-22T02:53:39.215Z,4.69
2022-12-22T02:56:26.211Z,4.66
2022-12-22T02:59:12.824Z,4.74
2022-12-22T03:02:00.078Z,4.74
2022-12-22T03:04:46.221Z,4.73
2022-12-22T03:07:32.672Z,4.68
2022-12-22T03:10:18.895Z,4.55
2022-12-22T03:13:05.397Z,4.49
2022-12-22T03:15:51.933Z,4.43
2022-12-22T03:18:38.068Z,4.30
2022-12-22T03:21:24.713Z,4.19
2022-12-22T03:24:10.928Z,4.04
2022-12-22T03:26:39.338Z,3.91
2022-12-22T03:29:08.220Z,3.79
2022-12-22T03:31:35.932Z,3.65
2022-12-22T03:34:03.764Z,3.56
2022-12-22T03:36:32.649Z,3.44
2022-12-22T03:39:00.720Z,3.35
2022-12-22T03:41:46.926Z,3.22
2022-12-22T03:44:37.633Z,3.30
2022-12-22T03:47:05.545Z,3.30
2022-12-22T03:49:33.107Z,3.24
2022-12-22T03:52:00.736Z,3.29
2022-12-22T03:54:28.411Z,3.36
2022-12-22T03:56:56.076Z,3.37
2022-12-22T03:59:23.745Z,3.35
2022-12-22T04:01:52.995Z,3.33
2022-12-22T04:04:22.830Z,3.27
2022-12-22T04:06:50.793Z,3.30
2022-12-22T04:09:18.588Z,3.33
2022-12-22T04:12:05.067Z,3.38
2022-12-22T04:14:34.586Z,3.35
2022-12-22T04:17:06.055Z,3.38
2022-12-22T04:19:33.837Z,3.40
2022-12-22T04:22:01.624Z,3.42
2022-12-22T04:24:29.601Z,3.45
2022-12-22T04:26:57.141Z,3.51
2022-12-22T04:29:24.766Z,3.54
2022-12-22T04:31:52.375Z,3.57
2022-12-22T04:34:20.149Z,3.60
2022-12-22T04:36:49.452Z,3.66
2022-12-22T04:39:17.088Z,3.70
2022-12-22T04:41:45.381Z,3.72
2022-12-22T04:44:13.506Z,3.74
2022-12-22T04:46:41.312Z,3.84
2022-12-22T04:49:09.069Z,3.82
2022-12-22T04:51:36.935Z,3.80
2022-12-22T04:54:04.749Z,3.79
2022-12-22T04:56:32.586Z,3.90
2022-12-22T04:59:00.275Z,3.96
2022-12-22T05:01:28.163Z,3.97
2022-12-22T05:03:56.233Z,3.94
2022-12-22T05:06:24.026Z,3.95
2022-12-22T05:08:51.758Z,3.88
2022-12-22T05:11:19.587Z,3.96
2022-12-22T05:13:47.525Z,3.92
2022-12-22T05:16:16.278Z,3.91
2022-12-22T05:18:44.796Z,3.88
2022-12-22T05:21:21.190Z,4.00
2022-12-22T05:23:49.206Z,3.98
2022-12-22T05:26:17.919Z,3.94
2022-12-22T05:28:46.808Z,3.87
2022-12-22T05:31:20.278Z,3.96
2022-12-22T05:33:48.217Z,3.89
2022-12-22T05:36:16.437Z,4.04
2022-12-22T05:38:46.972Z,4.03
2022-12-22T05:41:14.825Z,4.13
2022-12-22T05:43:42.597Z,4.10
2022-12-22T05:46:12.609Z,4.03
2022-12-22T05:48:40.497Z,4.07
2022-12-22T05:51:08.957Z,4.09
2022-12-22T05:53:37.690Z,4.10
2022-12-22T05:56:05.996Z,4.19
2022-12-22T05:58:34.322Z,4.03
2022-12-22T06:01:02.090Z,4.16
2022-12-22T06:03:30.370Z,4.15
2022-12-22T06:05:58.248Z,4.30
2022-12-22T06:08:26.122Z,4.34
2022-12-22T06:10:54.672Z,4.46
2022-12-22T06:13:22.691Z,4.26
2022-12-22T06:15:50.415Z,4.35
2022-12-22T06:18:18.147Z,4.19
2022-12-22T06:20:46.922Z,4.16
2022-12-22T06:23:14.769Z,4.22
2022-12-22T06:25:42.616Z,4.21
2022-12-22T06:28:10.277Z,4.23
2022-12-22T06:30:38.663Z,4.36
2022-12-22T06:33:06.351Z,4.27
2022-12-22T06:35:34.234Z,4.44
2022-12-22T06:38:01.964Z,4.41
2022-12-22T06:40:29.876Z,4.52
2022-12-22T06:43:10.305Z,4.49
2022-12-22T06:45:40.360Z,4.49
2022-12-22T06:48:10.754Z,4.42
2022-12-22T06:50:38.596Z,4.63
2022-12-22T06:53:07.192Z,4.54
2022-12-22T06:55:34.997Z,4.77
2022-12-22T06:58:02.882Z,4.78
2022-12-22T07:00:30.695Z,4.97
2022-12-22T07:02:58.369Z,4.99
2022-12-22T07:05:26.340Z,4.94
2022-12-22T07:07:54.042Z,5.00
2022-12-22T07:10:43.472Z,4.95
2022-12-22T07:13:19.936Z,4.78
2022-12-22T07:15:53.857Z,4.71
2022-12-22T07:18:25.369Z,4.84
2022-12-22T07:20:53.206Z,4.90
2022-12-22T07:23:21.064Z,4.95
2022-12-22T07:25:48.744Z,4.92
2022-12-22T07:28:20.641Z,5.03
2022-12-22T07:30:52.110Z,5.10
2022-12-22T07:33:20.023Z,5.10
2022-12-22T07:35:48.001Z,5.17
2022-12-22T07:38:15.902Z,5.20
2022-12-22T07:40:47.971Z,5.33
2022-12-22T07:43:19.548Z,5.46
2022-12-22T07:45:47.416Z,5.72
2022-12-22T07:48:33.732Z,5.89
2022-12-22T07:51:05.608Z,6.07
2022-12-22T07:53:34.504Z,6.13
2022-12-22T07:56:05.447Z,6.14
2022-12-22T07:58:33.800Z,6.11
2022-12-22T08:01:01.757Z,6.21
2022-12-22T08:03:29.728Z,6.27
2022-12-22T08:05:57.864Z,6.13
2022-12-22T08:08:26.730Z,6.27
2022-12-22T08:10:54.632Z,6.59
2022-12-22T08:13:22.478Z,6.76
2022-12-22T08:15:56.485Z,6.77
2022-12-22T08:18:24.629Z,6.83
2022-12-22T08:20:52.652Z,7.04
2022-12-22T08:23:20.544Z,7.22
2022-12-22T08:25:49.415Z,7.37
2022-12-22T08:28:18.159Z,7.34
2022-12-22T08:30:46.045Z,7.22
2022-12-22T08:33:14.196Z,7.57
2022-12-22T08:35:42.146Z,7.69
2022-12-22T08:38:11.137Z,8.00
2022-12-22T08:40:38.885Z,8.11
2022-12-22T08:43:08.169Z,8.17
2022-12-22T08:54:41.390Z,8.72
2022-12-22T08:57:10.014Z,8.69
2022-12-22T08:59:37.855Z,8.91
2022-12-22T09:02:06.128Z,8.81
2022-12-22T09:04:34.086Z,8.74
2022-12-22T09:07:04.921Z,8.59
2022-12-22T09:09:33.520Z,8.65
2022-12-22T09:12:04.442Z,8.40
2022-12-22T09:14:32.955Z,8.16
2022-12-22T09:17:00.880Z,8.16
2022-12-22T09:19:28.984Z,8.20
2022-12-22T09:21:57.052Z,8.30
2022-12-22T09:24:24.742Z,8.11
2022-12-22T09:26:52.425Z,8.21
2022-12-22T09:29:20.189Z,8.49
2022-12-22T09:31:47.979Z,8.53
2022-12-22T09:34:18.306Z,8.37
2022-12-22T09:36:46.341Z,8.57
2022-12-22T09:39:14.356Z,8.32
2022-12-22T09:41:55.691Z,8.49
2022-12-22T09:44:26.171Z,8.51
2022-12-22T09:46:55.065Z,8.53
2022-12-22T09:49:23.213Z,8.31
2022-12-22T09:51:58.683Z,8.32
2022-12-22T09:54:26.552Z,8.48
2022-12-22T09:56:56.493Z,8.70
2022-12-22T09:59:27.267Z,8.60
2022-12-22T10:02:27.549Z,8.70
2022-12-22T10:05:31.033Z,8.59
2022-12-22T10:08:02.269Z,8.65
2022-12-22T10:10:31.262Z,8.62
2022-12-22T10:13:00.878Z,8.52
2022-12-22T10:15:38.289Z,8.51
2022-12-22T10:18:29.431Z,8.32
2022-12-22T10:21:09.026Z,8.22
2022-12-22T10:23:41.647Z,8.50
2022-12-22T10:26:30.918Z,8.64
2022-12-22T10:29:00.435Z,8.19
2022-12-22T10:31:29.654Z,8.11
2022-12-22T10:34:09.724Z,8.13
2022-12-22T10:36:37.406Z,8.01
2022-12-22T10:39:07.098Z,8.00
2022-12-22T10:41:47.882Z,8.30
2022-12-22T10:44:15.734Z,8.35
2022-12-22T10:46:46.768Z,8.50
2022-12-22T10:49:22.935Z,8.18
2022-12-22T10:52:14.603Z,8.15
2022-12-22T10:54:44.281Z,7.97
2022-12-22T10:57:14.968Z,7.91
2022-12-22T10:59:53.437Z,8.15
2022-12-22T11:02:21.024Z,8.01
2022-12-22T11:04:49.316Z,7.99
2022-12-22T11:07:17.332Z,8.14
2022-12-22T11:09:44.903Z,8.23
2022-12-22T11:12:21.294Z,8.32
2022-12-22T11:15:26.358Z,8.33
2022-12-22T11:18:22.273Z,8.19
2022-12-22T11:20:56.963Z,8.08
2022-12-22T11:23:26.829Z,8.10
2022-12-22T11:26:11.811Z,8.09
2022-12-22T11:28:56.890Z,8.10
2022-12-22T11:31:24.451Z,8.03
2022-12-22T11:34:09.889Z,8.07
2022-12-22T11:36:49.406Z,7.93
2022-12-22T11:39:19.488Z,8.03
2022-12-22T11:41:57.861Z,8.00
2022-12-22T11:44:39.955Z,7.90
2022-12-22T11:47:55.047Z,7.83
2022-12-22T11:50:58.200Z,7.75
2022-12-22T11:53:40.035Z,7.87
2022-12-22T11:56:35.885Z,7.75
2022-12-22T11:59:26.827Z,7.83
2022-12-22T12:02:44.784Z,7.91
2022-12-22T12:05:29.631Z,8.03
2022-12-22T12:08:16.272Z,7.80
2022-12-22T12:11:18.558Z,7.80
2022-12-22T12:13:59.605Z,7.77
2022-12-22T12:16:41.876Z,7.74
2022-12-22T12:19:50.669Z,7.74
2022-12-22T12:22:27.896Z,7.58
2022-12-22T12:25:26.027Z,7.68
2022-12-22T12:28:37.254Z,7.58
2022-12-22T12:31:05.146Z,7.44
2022-12-22T12:33:56.324Z,7.70
2022-12-22T12:36:29.204Z,7.59
2022-12-22T12:39:08.009Z,7.52
2022-12-22T12:41:54.415Z,7.62
2022-12-22T12:44:25.973Z,7.60
2022-12-22T12:46:55.036Z,7.51
2022-12-22T12:49:57.660Z,7.54
2022-12-22T12:52:48.827Z,7.41
2022-12-22T12:55:38.873Z,7.41
2022-12-22T12:58:10.510Z,7.41
2022-12-22T13:00:45.063Z,7.46
2022-12-22T13:03:52.980Z,7.45
2022-12-22T13:06:32.358Z,7.44
2022-12-22T13:09:39.732Z,7.45
2022-12-22T13:12:11.861Z,7.50
2022-12-22T13:14:57.813Z,7.25
2022-12-22T13:17:41.793Z,7.32
2022-12-22T13:20:14.707Z,7.24
2022-12-22T13:22:42.865Z,7.21
2022-12-22T13:25:15.904Z,7.34
2022-12-22T13:27:43.669Z,7.30
2022-12-22T13:30:16.405Z,7.23
2022-12-22T13:32:44.994Z,7.20
2022-12-22T13:35:32.602Z,7.16
2022-12-22T13:38:00.540Z,7.12
2022-12-22T13:40:31.303Z,7.09
2022-12-22T13:43:15.760Z,7.01
2022-12-22T13:45:51.280Z,6.98
2022-12-22T13:48:26.030Z,7.01
2022-12-22T13:51:00.403Z,7.04
2022-12-22T13:56:34.361Z,6.93
2022-12-22T13:59:02.222Z,6.98
2022-12-22T14:01:30.101Z,7.13
2022-12-22T14:04:07.941Z,7.12
2022-12-22T14:06:37.279Z,7.25
2022-12-22T14:09:18.503Z,7.22
2022-12-22T14:12:07.759Z,7.24
2022-12-22T14:14:40.079Z,6.93
2022-12-22T14:17:22.492Z,6.96
2022-12-22T14:19:51.587Z,7.23
2022-12-22T14:22:23.224Z,7.07
2022-12-22T14:24:57.571Z,7.07
2022-12-22T14:27:32.874Z,7.05
2022-12-22T14:30:01.664Z,7.19
2022-12-22T14:32:54.765Z,7.07
2022-12-22T14:35:23.176Z,7.13
2022-12-22T14:37:51.644Z,7.04
2022-12-22T14:40:32.363Z,7.18
2022-12-22T14:43:01.879Z,7.16
2022-12-22T14:45:29.539Z,7.03
2022-12-22T14:47:57.555Z,7.10
2022-12-22T14:50:26.769Z,6.95
2022-12-22T14:52:59.073Z,7.04
2022-12-22T14:55:39.912Z,7.00
2022-12-22T14:58:10.463Z,6.89
2022-12-22T15:00:39.695Z,6.97
2022-12-22T15:03:26.134Z,7.01
2022-12-22T15:05:53.967Z,6.97
2022-12-22T15:08:40.908Z,6.89
2022-12-22T15:11:12.809Z,6.98
2022-12-22T15:13:40.569Z,6.95
2022-12-22T15:16:10.437Z,6.92
2022-12-22T15:18:38.028Z,6.84
2022-12-22T15:21:05.774Z,6.89
2022-12-22T15:23:33.314Z,6.89
2022-12-22T15:26:00.846Z,6.99
2022-12-22T15:28:28.917Z,6.94
2022-12-22T15:30:56.694Z,6.91
2022-12-22T15:33:26.257Z,6.84
2022-12-22T15:35:53.768Z,6.95
2022-12-22T15:38:22.495Z,6.84
2022-12-22T15:40:50.207Z,6.87
2022-12-22T15:43:54.063Z,7.00
2022-12-22T15:46:05.921Z,6.91
2022-12-22T15:48:35.529Z,6.80
2022-12-22T15:51:03.836Z,6.89
2022-12-22T15:53:32.142Z,7.03
2022-12-22T15:55:59.852Z,7.14
2022-12-22T15:58:35.494Z,7.13
2022-12-22T16:01:03.329Z,7.15
2022-12-22T16:03:31.399Z,7.28
2022-12-22T16:06:00.711Z,7.34
2022-12-22T16:08:31.277Z,7.29
2022-12-22T16:10:58.961Z,7.29
2022-12-22T16:13:27.422Z,7.26
2022-12-22T16:15:57.888Z,7.29
2022-12-22T16:18:25.862Z,7.20
2022-12-22T16:20:54.101Z,7.23
2022-12-22T16:23:25.921Z,7.20
2022-12-22T16:26:00.650Z,7.29
2022-12-22T16:28:29.456Z,7.34
2022-12-22T16:30:57.326Z,7.28
2022-12-22T16:33:24.905Z,7.20
2022-12-22T16:35:52.572Z,7.27
2022-12-22T16:38:20.552Z,7.32
2022-12-22T16:40:49.778Z,7.14
2022-12-22T16:46:16.750Z,7.18
2022-12-22T16:48:53.128Z,7.17
2022-12-22T16:51:36.954Z,7.21
2022-12-22T16:54:04.768Z,7.16
2022-12-22T16:56:32.441Z,7.10
2022-12-22T16:59:01.033Z,7.05
2022-12-22T17:01:34.396Z,7.15
2022-12-22T17:04:04.953Z,7.10
2022-12-22T17:06:33.205Z,7.13
2022-12-22T17:09:02.221Z,6.99
2022-12-22T17:11:31.788Z,6.95
2022-12-22T17:14:05.218Z,7.02
2022-12-22T17:16:34.518Z,7.09
2022-12-22T17:19:02.085Z,6.94
2022-12-22T17:21:30.050Z,7.04
2022-12-22T17:24:04.080Z,6.93
2022-12-22T17:26:33.072Z,7.10
2022-12-22T17:29:00.762Z,7.04
2022-12-22T17:31:28.586Z,7.00
2022-12-22T17:33:57.120Z,6.88
2022-12-22T17:36:35.938Z,6.90
2022-12-22T17:39:04.008Z,6.91
2022-12-22T17:41:32.115Z,6.95
2022-12-22T17:43:59.796Z,7.11
2022-12-22T17:46:27.624Z,7.07
2022-12-22T17:48:55.373Z,7.03
2022-12-22T17:51:29.697Z,7.03
2022-12-22T17:53:57.865Z,6.99
2022-12-22T17:56:26.252Z,7.10
2022-12-22T17:58:53.943Z,7.06
2022-12-22T18:01:23.787Z,7.09
2022-12-22T18:03:51.648Z,7.13
2022-12-22T18:06:20.190Z,7.06
2022-12-22T18:08:47.851Z,7.02
2022-12-22T18:11:15.648Z,7.05
2022-12-22T18:13:43.272Z,7.12
2022-12-22T18:16:15.971Z,7.15
2022-12-22T18:18:44.177Z,7.14
2022-12-22T18:21:18.241Z,7.16
2022-12-22T18:23:49.961Z,7.12
2022-12-22T18:26:22.430Z,7.10
2022-12-22T18:28:50.803Z,7.12
2022-12-22T18:31:19.201Z,7.21
2022-12-22T18:33:46.899Z,7.21
2022-12-22T18:36:23.712Z,7.19
2022-12-22T18:38:51.759Z,7.13
2022-12-22T18:41:21.663Z,7.25
2022-12-22T18:43:49.696Z,7.20
2022-12-22T18:46:18.198Z,7.25
2022-12-22T18:48:47.807Z,7.18
2022-12-22T18:51:23.191Z,7.33
2022-12-22T18:53:51.678Z,7.27
2022-12-22T18:56:19.351Z,7.29
2022-12-22T18:58:47.287Z,7.32
2022-12-22T19:01:25.499Z,7.24
2022-12-22T19:03:55.519Z,7.24
2022-12-22T19:06:23.188Z,7.32
2022-12-22T19:08:51.194Z,7.33
2022-12-22T19:11:21.694Z,7.33
2022-12-22T19:13:49.884Z,7.32
2022-12-22T19:16:19.004Z,7.27
2022-12-22T19:18:46.766Z,7.22
2022-12-22T19:21:15.478Z,7.27
2022-12-22T19:23:44.173Z,7.22
2022-12-22T19:26:23.896Z,7.18
2022-12-22T19:28:53.629Z,7.21
2022-12-22T19:31:23.235Z,7.20
2022-12-22T19:33:52.146Z,7.06
2022-12-22T19:36:22.221Z,6.89
2022-12-22T19:38:51.106Z,7.03
2022-12-22T19:41:47.815Z,7.10
2022-12-22T19:44:21.425Z,7.12
2022-12-22T19:46:49.121Z,7.02
2022-12-22T19:49:22.258Z,7.07
2022-12-22T19:51:50.141Z,7.00
2022-12-22T19:54:19.788Z,7.03
2022-12-22T19:56:51.832Z,6.80
2022-12-22T19:59:29.650Z,6.95
2022-12-22T20:02:00.181Z,6.91
2022-12-22T20:04:28.274Z,6.82
2022-12-22T20:06:55.958Z,6.90
2022-12-22T20:09:23.683Z,6.72
2022-12-22T20:11:51.314Z,6.77
2022-12-22T20:14:19.011Z,6.78
2022-12-22T20:16:46.748Z,6.64
2022-12-22T20:19:14.784Z,6.68
2022-12-22T20:21:42.428Z,6.63
2022-12-22T20:24:13.568Z,6.73
2022-12-22T20:26:41.882Z,6.60
2022-12-22T20:29:12.144Z,6.56
2022-12-22T20:31:39.979Z,6.78
2022-12-22T20:34:08.457Z,6.77
2022-12-22T20:36:36.783Z,6.64
2022-12-22T20:39:10.089Z,6.68
2022-12-22T20:41:37.807Z,6.63
2022-12-22T20:44:05.566Z,6.56
2022-12-22T20:46:33.629Z,6.65
2022-12-22T20:49:02.072Z,6.57
2022-12-22T20:51:32.105Z,6.60
2022-12-22T20:54:00.218Z,6.58
2022-12-22T20:56:32.264Z,6.61
2022-12-22T20:59:00.905Z,6.59
2022-12-22T21:01:28.853Z,6.57
2022-12-22T21:03:56.696Z,6.57
2022-12-22T21:06:27.347Z,6.42
2022-12-22T21:08:56.822Z,6.53
2022-12-22T21:11:24.686Z,6.56
2022-12-22T21:13:52.572Z,6.54
2022-12-22T21:16:23.980Z,6.61
2022-12-22T21:18:51.636Z,6.61
2022-12-22T21:21:19.291Z,6.55
2022-12-22T21:23:46.965Z,6.43
2022-12-22T21:26:27.473Z,6.52
2022-12-22T21:28:55.121Z,6.55
2022-12-22T21:31:22.937Z,6.53
2022-12-22T21:33:50.600Z,6.46
2022-12-22T21:36:26.227Z,6.42
2022-12-22T21:38:56.383Z,6.45
2022-12-22T21:41:44.250Z,6.42
2022-12-22T21:44:13.465Z,6.37
2022-12-22T21:46:42.186Z,6.29
2022-12-22T21:49:23.374Z,6.46
2022-12-22T21:51:51.740Z,6.33
2022-12-22T21:54:19.946Z,6.34
2022-12-22T21:56:47.967Z,6.31
2022-12-22T21:59:15.946Z,6.33
2022-12-22T22:01:44.957Z,6.20
2022-12-22T22:04:12.715Z,6.17
2022-12-22T22:06:40.421Z,6.10
2022-12-22T22:09:10.369Z,6.22
2022-12-22T22:11:58.510Z,6.18
2022-12-22T22:14:26.480Z,6.17
2022-12-22T22:16:56.187Z,6.09
2022-12-22T22:19:24.010Z,6.05
2022-12-22T22:21:51.648Z,6.07
2022-12-22T22:24:19.242Z,6.23
2022-12-22T22:26:46.813Z,6.18
2022-12-22T22:29:14.305Z,6.12
2022-12-22T22:31:42.073Z,6.03
2022-12-22T22:34:09.729Z,6.19
2022-12-22T22:36:37.477Z,6.07
2022-12-22T22:39:05.513Z,6.14
2022-12-22T22:41:39.265Z,6.17
2022-12-22T22:44:11.074Z,6.18
2022-12-22T22:46:38.847Z,5.97
2022-12-22T22:49:07.377Z,5.85
2022-12-22T22:51:34.958Z,5.99
2022-12-22T22:54:02.592Z,5.93
2022-12-22T22:56:30.938Z,6.02
2022-12-22T22:59:01.472Z,5.84
2022-12-22T23:01:29.330Z,5.85
2022-12-22T23:03:57.211Z,5.90
2022-12-22T23:06:25.111Z,5.77
2022-12-22T23:08:54.380Z,5.90
2022-12-22T23:11:22.243Z,5.87
2022-12-22T23:13:52.909Z,5.78
2022-12-22T23:16:21.820Z,5.57
2022-12-22T23:18:52.101Z,5.59
2022-12-22T23:21:19.856Z,5.67
2022-12-22T23:23:47.581Z,5.77
2022-12-22T23:26:15.379Z,5.76
2022-12-22T23:28:43.264Z,5.75
2022-12-22T23:31:11.916Z,5.77
2022-12-22T23:33:39.883Z,5.85
2022-12-22T23:36:08.089Z,5.89
2022-12-22T23:38:36.365Z,5.76
2022-12-22T23:41:09.769Z,5.86
2022-12-22T23:43:37.652Z,5.55
2022-12-22T23:46:09.294Z,5.56
2022-12-22T23:48:37.256Z,5.75
2022-12-22T23:51:05.091Z,5.70
2022-12-22T23:53:33.803Z,5.74
2022-12-22T23:56:01.617Z,5.71
2022-12-22T23:58:30.171Z,5.75
